sensor_id;sensor_type;location;lat;lon;timestamp;P1;durP1;ratioP1;P2;durP2;ratioP2
38615;SDS011;24370;51.986;4.666;2024-03-22T00:01:45;37.08;;;14.90;;
38615;SDS011;24370;51.986;4.666;2024-03-22T00:04:11;36.80;;;13.57;;
38615;SDS011;24370;51.986;4.666;2024-03-22T00:06:37;36.17;;;13.80;;
38615;SDS011;24370;51.986;4.666;2024-03-22T00:09:03;36.90;;;14.05;;
38615;SDS011;24370;51.986;4.666;2024-03-22T00:11:28;35.20;;;14.15;;
38615;SDS011;24370;51.986;4.666;2024-03-22T00:13:53;38.00;;;13.10;;
38615;SDS011;24370;51.986;4.666;2024-03-22T00:16:19;35.42;;;12.13;;
38615;SDS011;24370;51.986;4.666;2024-03-22T00:18:45;32.72;;;12.70;;
38615;SDS011;24370;51.986;4.666;2024-03-22T00:21:10;39.30;;;15.18;;
38615;SDS011;24370;51.986;4.666;2024-03-22T00:23:35;38.65;;;14.43;;
38615;SDS011;24370;51.986;4.666;2024-03-22T00:26:01;35.00;;;12.90;;
38615;SDS011;24370;51.986;4.666;2024-03-22T00:28:26;39.72;;;14.43;;
38615;SDS011;24370;51.986;4.666;2024-03-22T00:30:51;36.67;;;12.90;;
38615;SDS011;24370;51.986;4.666;2024-03-22T00:33:17;35.80;;;13.53;;
38615;SDS011;24370;51.986;4.666;2024-03-22T00:35:42;44.30;;;15.27;;
38615;SDS011;24370;51.986;4.666;2024-03-22T00:38:07;32.83;;;12.40;;
38615;SDS011;24370;51.986;4.666;2024-03-22T00:40:33;35.40;;;13.47;;
38615;SDS011;24370;51.986;4.666;2024-03-22T00:42:58;36.70;;;13.93;;
38615;SDS011;24370;51.986;4.666;2024-03-22T00:45:24;39.93;;;16.73;;
38615;SDS011;24370;51.986;4.666;2024-03-22T00:47:49;33.60;;;13.20;;
38615;SDS011;24370;51.986;4.666;2024-03-22T00:50:15;39.23;;;16.30;;
38615;SDS011;24370;51.986;4.666;2024-03-22T00:52:40;44.00;;;16.43;;
38615;SDS011;24370;51.986;4.666;2024-03-22T00:55:06;37.07;;;16.33;;
38615;SDS011;24370;51.986;4.666;2024-03-22T00:57:32;39.67;;;17.10;;
38615;SDS011;24370;51.986;4.666;2024-03-22T00:59:57;44.93;;;17.43;;
38615;SDS011;24370;51.986;4.666;2024-03-22T01:02:23;46.10;;;17.33;;
38615;SDS011;24370;51.986;4.666;2024-03-22T01:04:48;52.33;;;19.47;;
38615;SDS011;24370;51.986;4.666;2024-03-22T01:07:14;50.30;;;18.53;;
38615;SDS011;24370;51.986;4.666;2024-03-22T01:09:39;60.33;;;20.43;;
38615;SDS011;24370;51.986;4.666;2024-03-22T01:12:05;55.37;;;21.20;;
38615;SDS011;24370;51.986;4.666;2024-03-22T01:14:30;59.27;;;21.60;;
38615;SDS011;24370;51.986;4.666;2024-03-22T01:16:56;58.23;;;21.00;;
38615;SDS011;24370;51.986;4.666;2024-03-22T01:19:21;59.60;;;19.97;;
38615;SDS011;24370;51.986;4.666;2024-03-22T01:21:48;59.43;;;21.33;;
38615;SDS011;24370;51.986;4.666;2024-03-22T01:24:13;55.73;;;21.27;;
38615;SDS011;24370;51.986;4.666;2024-03-22T01:26:39;61.17;;;21.43;;
38615;SDS011;24370;51.986;4.666;2024-03-22T01:29:04;60.20;;;21.27;;
38615;SDS011;24370;51.986;4.666;2024-03-22T01:31:29;57.37;;;20.60;;
38615;SDS011;24370;51.986;4.666;2024-03-22T01:33:55;62.80;;;23.00;;
38615;SDS011;24370;51.986;4.666;2024-03-22T01:36:20;54.87;;;19.50;;
38615;SDS011;24370;51.986;4.666;2024-03-22T01:38:46;52.47;;;18.87;;
38615;SDS011;24370;51.986;4.666;2024-03-22T01:41:11;52.73;;;19.30;;
38615;SDS011;24370;51.986;4.666;2024-03-22T01:43:36;59.47;;;19.37;;
38615;SDS011;24370;51.986;4.666;2024-03-22T01:46:02;56.30;;;19.77;;
38615;SDS011;24370;51.986;4.666;2024-03-22T01:48:27;53.03;;;19.93;;
38615;SDS011;24370;51.986;4.666;2024-03-22T01:50:53;49.20;;;17.77;;
38615;SDS011;24370;51.986;4.666;2024-03-22T01:53:18;57.53;;;20.03;;
38615;SDS011;24370;51.986;4.666;2024-03-22T01:55:46;49.93;;;16.97;;
38615;SDS011;24370;51.986;4.666;2024-03-22T01:58:12;46.53;;;16.13;;
38615;SDS011;24370;51.986;4.666;2024-03-22T02:00:37;45.53;;;15.73;;
38615;SDS011;24370;51.986;4.666;2024-03-22T02:03:03;46.00;;;16.80;;
38615;SDS011;24370;51.986;4.666;2024-03-22T02:05:29;42.60;;;15.33;;
38615;SDS011;24370;51.986;4.666;2024-03-22T02:07:54;45.60;;;14.80;;
38615;SDS011;24370;51.986;4.666;2024-03-22T02:10:20;43.77;;;15.93;;
38615;SDS011;24370;51.986;4.666;2024-03-22T02:12:46;37.03;;;14.83;;
38615;SDS011;24370;51.986;4.666;2024-03-22T02:15:11;36.13;;;13.07;;
38615;SDS011;24370;51.986;4.666;2024-03-22T02:17:36;38.07;;;14.27;;
38615;SDS011;24370;51.986;4.666;2024-03-22T02:20:02;37.23;;;12.83;;
38615;SDS011;24370;51.986;4.666;2024-03-22T02:22:29;39.17;;;14.40;;
38615;SDS011;24370;51.986;4.666;2024-03-22T02:24:54;32.07;;;13.30;;
38615;SDS011;24370;51.986;4.666;2024-03-22T02:27:20;40.80;;;13.30;;
38615;SDS011;24370;51.986;4.666;2024-03-22T02:29:45;29.73;;;12.80;;
38615;SDS011;24370;51.986;4.666;2024-03-22T02:32:11;36.27;;;13.77;;
38615;SDS011;24370;51.986;4.666;2024-03-22T02:34:36;31.23;;;12.57;;
38615;SDS011;24370;51.986;4.666;2024-03-22T02:37:02;34.20;;;13.40;;
38615;SDS011;24370;51.986;4.666;2024-03-22T02:39:27;34.63;;;12.80;;
38615;SDS011;24370;51.986;4.666;2024-03-22T02:41:53;35.13;;;12.40;;
38615;SDS011;24370;51.986;4.666;2024-03-22T02:44:22;33.43;;;12.60;;
38615;SDS011;24370;51.986;4.666;2024-03-22T02:46:47;32.47;;;12.83;;
38615;SDS011;24370;51.986;4.666;2024-03-22T02:49:13;30.47;;;11.17;;
38615;SDS011;24370;51.986;4.666;2024-03-22T02:51:38;29.47;;;12.53;;
38615;SDS011;24370;51.986;4.666;2024-03-22T02:54:04;31.70;;;12.70;;
38615;SDS011;24370;51.986;4.666;2024-03-22T02:56:29;26.13;;;11.67;;
38615;SDS011;24370;51.986;4.666;2024-03-22T02:58:55;30.13;;;11.87;;
38615;SDS011;24370;51.986;4.666;2024-03-22T03:01:20;28.97;;;11.73;;
38615;SDS011;24370;51.986;4.666;2024-03-22T03:03:46;36.43;;;12.27;;
38615;SDS011;24370;51.986;4.666;2024-03-22T03:06:11;34.93;;;12.00;;
38615;SDS011;24370;51.986;4.666;2024-03-22T03:08:38;27.30;;;10.67;;
38615;SDS011;24370;51.986;4.666;2024-03-22T03:11:04;30.80;;;12.03;;
38615;SDS011;24370;51.986;4.666;2024-03-22T03:13:29;30.77;;;10.10;;
38615;SDS011;24370;51.986;4.666;2024-03-22T03:15:55;31.07;;;10.37;;
38615;SDS011;24370;51.986;4.666;2024-03-22T03:18:20;27.07;;;10.10;;
38615;SDS011;24370;51.986;4.666;2024-03-22T03:20:45;31.13;;;11.93;;
38615;SDS011;24370;51.986;4.666;2024-03-22T03:23:11;27.00;;;9.40;;
38615;SDS011;24370;51.986;4.666;2024-03-22T03:25:36;31.70;;;9.33;;
38615;SDS011;24370;51.986;4.666;2024-03-22T03:28:02;28.73;;;10.37;;
38615;SDS011;24370;51.986;4.666;2024-03-22T03:30:27;27.83;;;10.33;;
38615;SDS011;24370;51.986;4.666;2024-03-22T03:32:52;28.23;;;9.77;;
38615;SDS011;24370;51.986;4.666;2024-03-22T03:35:18;25.90;;;10.47;;
38615;SDS011;24370;51.986;4.666;2024-03-22T03:37:43;30.33;;;8.93;;
38615;SDS011;24370;51.986;4.666;2024-03-22T03:40:08;26.63;;;9.67;;
38615;SDS011;24370;51.986;4.666;2024-03-22T03:42:34;29.13;;;9.13;;
38615;SDS011;24370;51.986;4.666;2024-03-22T03:44:59;31.77;;;10.53;;
38615;SDS011;24370;51.986;4.666;2024-03-22T03:47:25;26.83;;;10.03;;
38615;SDS011;24370;51.986;4.666;2024-03-22T03:49:50;24.27;;;9.17;;
38615;SDS011;24370;51.986;4.666;2024-03-22T03:52:17;29.07;;;10.57;;
38615;SDS011;24370;51.986;4.666;2024-03-22T03:54:42;23.70;;;9.50;;
38615;SDS011;24370;51.986;4.666;2024-03-22T03:57:08;27.57;;;8.57;;
38615;SDS011;24370;51.986;4.666;2024-03-22T03:59:33;25.17;;;9.27;;
38615;SDS011;24370;51.986;4.666;2024-03-22T04:01:58;34.30;;;8.53;;
38615;SDS011;24370;51.986;4.666;2024-03-22T04:04:24;21.07;;;7.97;;
38615;SDS011;24370;51.986;4.666;2024-03-22T04:06:49;17.60;;;7.67;;
38615;SDS011;24370;51.986;4.666;2024-03-22T04:09:14;31.93;;;9.83;;
38615;SDS011;24370;51.986;4.666;2024-03-22T04:11:40;26.27;;;8.97;;
38615;SDS011;24370;51.986;4.666;2024-03-22T04:14:05;28.80;;;9.13;;
38615;SDS011;24370;51.986;4.666;2024-03-22T04:16:31;26.33;;;9.43;;
38615;SDS011;24370;51.986;4.666;2024-03-22T04:18:56;30.80;;;9.60;;
38615;SDS011;24370;51.986;4.666;2024-03-22T04:21:22;24.27;;;8.80;;
38615;SDS011;24370;51.986;4.666;2024-03-22T04:23:47;23.77;;;10.07;;
38615;SDS011;24370;51.986;4.666;2024-03-22T04:26:13;21.50;;;9.57;;
38615;SDS011;24370;51.986;4.666;2024-03-22T04:28:38;26.90;;;9.80;;
38615;SDS011;24370;51.986;4.666;2024-03-22T04:31:04;32.30;;;11.03;;
38615;SDS011;24370;51.986;4.666;2024-03-22T04:33:32;37.60;;;13.57;;
38615;SDS011;24370;51.986;4.666;2024-03-22T04:35:59;30.53;;;11.83;;
38615;SDS011;24370;51.986;4.666;2024-03-22T04:38:26;32.10;;;11.87;;
38615;SDS011;24370;51.986;4.666;2024-03-22T04:40:53;35.80;;;13.47;;
38615;SDS011;24370;51.986;4.666;2024-03-22T04:43:21;35.53;;;13.03;;
38615;SDS011;24370;51.986;4.666;2024-03-22T04:45:48;30.07;;;11.93;;
38615;SDS011;24370;51.986;4.666;2024-03-22T04:48:16;34.43;;;12.43;;
38615;SDS011;24370;51.986;4.666;2024-03-22T04:50:43;32.60;;;11.13;;
38615;SDS011;24370;51.986;4.666;2024-03-22T04:53:08;28.80;;;11.40;;
38615;SDS011;24370;51.986;4.666;2024-03-22T04:55:33;31.13;;;11.30;;
38615;SDS011;24370;51.986;4.666;2024-03-22T04:57:59;29.73;;;11.37;;
38615;SDS011;24370;51.986;4.666;2024-03-22T05:00:24;31.77;;;11.23;;
38615;SDS011;24370;51.986;4.666;2024-03-22T05:02:50;24.60;;;9.70;;
38615;SDS011;24370;51.986;4.666;2024-03-22T05:05:16;23.63;;;9.70;;
38615;SDS011;24370;51.986;4.666;2024-03-22T05:07:41;33.27;;;11.23;;
38615;SDS011;24370;51.986;4.666;2024-03-22T05:10:07;38.13;;;11.93;;
38615;SDS011;24370;51.986;4.666;2024-03-22T05:12:34;34.40;;;10.73;;
38615;SDS011;24370;51.986;4.666;2024-03-22T05:14:59;29.77;;;12.17;;
38615;SDS011;24370;51.986;4.666;2024-03-22T05:17:24;37.00;;;14.77;;
38615;SDS011;24370;51.986;4.666;2024-03-22T05:19:50;41.00;;;15.37;;
38615;SDS011;24370;51.986;4.666;2024-03-22T05:22:15;36.73;;;12.67;;
38615;SDS011;24370;51.986;4.666;2024-03-22T05:24:40;38.33;;;12.63;;
38615;SDS011;24370;51.986;4.666;2024-03-22T05:27:06;35.60;;;12.93;;
38615;SDS011;24370;51.986;4.666;2024-03-22T05:29:31;27.33;;;12.07;;
38615;SDS011;24370;51.986;4.666;2024-03-22T05:31:56;27.57;;;10.63;;
38615;SDS011;24370;51.986;4.666;2024-03-22T05:34:22;27.60;;;10.83;;
38615;SDS011;24370;51.986;4.666;2024-03-22T05:36:48;19.17;;;8.33;;
38615;SDS011;24370;51.986;4.666;2024-03-22T05:39:13;20.37;;;8.60;;
38615;SDS011;24370;51.986;4.666;2024-03-22T05:41:39;22.33;;;7.50;;
38615;SDS011;24370;51.986;4.666;2024-03-22T05:44:05;17.60;;;8.50;;
38615;SDS011;24370;51.986;4.666;2024-03-22T05:46:31;25.53;;;7.77;;
38615;SDS011;24370;51.986;4.666;2024-03-22T05:48:57;30.70;;;7.93;;
38615;SDS011;24370;51.986;4.666;2024-03-22T05:51:23;17.23;;;7.00;;
38615;SDS011;24370;51.986;4.666;2024-03-22T05:53:49;18.70;;;7.83;;
38615;SDS011;24370;51.986;4.666;2024-03-22T05:56:14;26.53;;;8.17;;
38615;SDS011;24370;51.986;4.666;2024-03-22T05:58:40;25.43;;;8.80;;
38615;SDS011;24370;51.986;4.666;2024-03-22T06:01:05;24.17;;;8.97;;
38615;SDS011;24370;51.986;4.666;2024-03-22T06:03:30;31.17;;;8.67;;
38615;SDS011;24370;51.986;4.666;2024-03-22T06:05:56;27.87;;;7.90;;
38615;SDS011;24370;51.986;4.666;2024-03-22T06:08:24;30.90;;;10.23;;
38615;SDS011;24370;51.986;4.666;2024-03-22T06:10:50;25.00;;;9.60;;
38615;SDS011;24370;51.986;4.666;2024-03-22T06:13:17;30.37;;;10.00;;
38615;SDS011;24370;51.986;4.666;2024-03-22T06:15:43;20.23;;;9.00;;
38615;SDS011;24370;51.986;4.666;2024-03-22T06:18:11;32.00;;;8.77;;
38615;SDS011;24370;51.986;4.666;2024-03-22T06:20:37;26.73;;;9.37;;
38615;SDS011;24370;51.986;4.666;2024-03-22T06:23:02;25.37;;;8.57;;
38615;SDS011;24370;51.986;4.666;2024-03-22T06:25:28;24.53;;;8.37;;
38615;SDS011;24370;51.986;4.666;2024-03-22T06:27:54;24.20;;;7.67;;
38615;SDS011;24370;51.986;4.666;2024-03-22T06:30:20;20.20;;;7.70;;
38615;SDS011;24370;51.986;4.666;2024-03-22T06:32:45;28.63;;;8.83;;
38615;SDS011;24370;51.986;4.666;2024-03-22T06:35:11;32.30;;;9.63;;
38615;SDS011;24370;51.986;4.666;2024-03-22T06:37:37;21.63;;;8.23;;
38615;SDS011;24370;51.986;4.666;2024-03-22T06:40:03;25.87;;;8.73;;
38615;SDS011;24370;51.986;4.666;2024-03-22T06:42:30;24.83;;;9.03;;
38615;SDS011;24370;51.986;4.666;2024-03-22T06:44:55;30.50;;;9.83;;
38615;SDS011;24370;51.986;4.666;2024-03-22T06:47:21;25.83;;;8.80;;
38615;SDS011;24370;51.986;4.666;2024-03-22T06:49:46;22.90;;;8.50;;
38615;SDS011;24370;51.986;4.666;2024-03-22T06:52:12;26.30;;;8.35;;
38615;SDS011;24370;51.986;4.666;2024-03-22T06:54:37;28.20;;;9.80;;
38615;SDS011;24370;51.986;4.666;2024-03-22T06:57:03;25.63;;;9.67;;
38615;SDS011;24370;51.986;4.666;2024-03-22T06:59:28;22.27;;;8.83;;
38615;SDS011;24370;51.986;4.666;2024-03-22T07:01:53;25.70;;;8.97;;
38615;SDS011;24370;51.986;4.666;2024-03-22T07:04:22;22.50;;;8.30;;
38615;SDS011;24370;51.986;4.666;2024-03-22T07:06:47;18.77;;;7.33;;
38615;SDS011;24370;51.986;4.666;2024-03-22T07:09:12;26.60;;;7.57;;
38615;SDS011;24370;51.986;4.666;2024-03-22T07:11:38;25.13;;;8.57;;
38615;SDS011;24370;51.986;4.666;2024-03-22T07:14:03;22.73;;;8.10;;
38615;SDS011;24370;51.986;4.666;2024-03-22T07:16:29;24.13;;;6.67;;
38615;SDS011;24370;51.986;4.666;2024-03-22T07:18:54;22.00;;;6.53;;
38615;SDS011;24370;51.986;4.666;2024-03-22T07:21:19;15.20;;;5.97;;
38615;SDS011;24370;51.986;4.666;2024-03-22T07:23:45;20.70;;;6.33;;
38615;SDS011;24370;51.986;4.666;2024-03-22T07:26:10;17.33;;;5.30;;
38615;SDS011;24370;51.986;4.666;2024-03-22T07:28:36;18.63;;;6.00;;
38615;SDS011;24370;51.986;4.666;2024-03-22T07:31:01;20.70;;;8.37;;
38615;SDS011;24370;51.986;4.666;2024-03-22T07:33:26;14.30;;;5.40;;
38615;SDS011;24370;51.986;4.666;2024-03-22T07:35:52;12.13;;;6.17;;
38615;SDS011;24370;51.986;4.666;2024-03-22T07:38:19;14.17;;;5.27;;
38615;SDS011;24370;51.986;4.666;2024-03-22T07:40:45;24.57;;;7.17;;
38615;SDS011;24370;51.986;4.666;2024-03-22T07:43:11;15.60;;;5.20;;
38615;SDS011;24370;51.986;4.666;2024-03-22T07:45:38;14.47;;;5.30;;
38615;SDS011;24370;51.986;4.666;2024-03-22T07:48:04;19.10;;;6.87;;
38615;SDS011;24370;51.986;4.666;2024-03-22T07:50:29;20.20;;;6.07;;
38615;SDS011;24370;51.986;4.666;2024-03-22T07:52:55;29.00;;;4.83;;
38615;SDS011;24370;51.986;4.666;2024-03-22T07:55:21;21.47;;;6.17;;
38615;SDS011;24370;51.986;4.666;2024-03-22T07:57:47;18.90;;;5.90;;
38615;SDS011;24370;51.986;4.666;2024-03-22T08:00:13;13.87;;;4.80;;
38615;SDS011;24370;51.986;4.666;2024-03-22T08:02:38;18.27;;;4.97;;
38615;SDS011;24370;51.986;4.666;2024-03-22T08:05:04;19.43;;;5.23;;
38615;SDS011;24370;51.986;4.666;2024-03-22T08:07:30;29.07;;;6.73;;
38615;SDS011;24370;51.986;4.666;2024-03-22T08:09:55;10.93;;;4.23;;
38615;SDS011;24370;51.986;4.666;2024-03-22T08:12:21;19.33;;;5.10;;
38615;SDS011;24370;51.986;4.666;2024-03-22T08:14:46;15.20;;;5.57;;
38615;SDS011;24370;51.986;4.666;2024-03-22T08:17:12;14.60;;;4.80;;
38615;SDS011;24370;51.986;4.666;2024-03-22T08:19:37;11.83;;;4.57;;
38615;SDS011;24370;51.986;4.666;2024-03-22T08:22:04;22.13;;;6.60;;
38615;SDS011;24370;51.986;4.666;2024-03-22T08:24:29;16.53;;;5.40;;
38615;SDS011;24370;51.986;4.666;2024-03-22T08:26:55;14.37;;;4.37;;
38615;SDS011;24370;51.986;4.666;2024-03-22T08:29:20;18.53;;;4.30;;
38615;SDS011;24370;51.986;4.666;2024-03-22T08:31:46;14.73;;;5.00;;
38615;SDS011;24370;51.986;4.666;2024-03-22T08:34:12;12.00;;;4.47;;
38615;SDS011;24370;51.986;4.666;2024-03-22T08:36:37;15.83;;;4.93;;
38615;SDS011;24370;51.986;4.666;2024-03-22T08:39:02;18.50;;;5.20;;
38615;SDS011;24370;51.986;4.666;2024-03-22T08:41:28;15.57;;;4.40;;
38615;SDS011;24370;51.986;4.666;2024-03-22T08:43:53;15.47;;;5.00;;
38615;SDS011;24370;51.986;4.666;2024-03-22T08:46:19;17.07;;;6.13;;
38615;SDS011;24370;51.986;4.666;2024-03-22T08:48:46;15.03;;;5.53;;
38615;SDS011;24370;51.986;4.666;2024-03-22T08:51:12;12.50;;;5.10;;
38615;SDS011;24370;51.986;4.666;2024-03-22T08:53:37;18.53;;;5.50;;
38615;SDS011;24370;51.986;4.666;2024-03-22T08:56:02;17.40;;;5.83;;
38615;SDS011;24370;51.986;4.666;2024-03-22T08:58:28;12.77;;;5.27;;
38615;SDS011;24370;51.986;4.666;2024-03-22T09:00:53;11.90;;;5.00;;
38615;SDS011;24370;51.986;4.666;2024-03-22T09:03:22;12.10;;;5.97;;
38615;SDS011;24370;51.986;4.666;2024-03-22T09:05:51;17.00;;;5.53;;
38615;SDS011;24370;51.986;4.666;2024-03-22T09:08:18;12.87;;;5.07;;
38615;SDS011;24370;51.986;4.666;2024-03-22T09:10:44;15.63;;;5.13;;
38615;SDS011;24370;51.986;4.666;2024-03-22T09:13:10;11.80;;;5.83;;
38615;SDS011;24370;51.986;4.666;2024-03-22T09:15:37;15.03;;;5.50;;
38615;SDS011;24370;51.986;4.666;2024-03-22T09:18:03;11.47;;;6.50;;
38615;SDS011;24370;51.986;4.666;2024-03-22T09:20:28;16.50;;;6.30;;
38615;SDS011;24370;51.986;4.666;2024-03-22T09:22:54;17.03;;;6.07;;
38615;SDS011;24370;51.986;4.666;2024-03-22T09:25:19;17.40;;;6.50;;
38615;SDS011;24370;51.986;4.666;2024-03-22T09:27:45;22.90;;;6.90;;
38615;SDS011;24370;51.986;4.666;2024-03-22T09:30:11;13.60;;;6.57;;
38615;SDS011;24370;51.986;4.666;2024-03-22T09:32:36;19.63;;;7.67;;
38615;SDS011;24370;51.986;4.666;2024-03-22T09:35:02;16.63;;;6.43;;
38615;SDS011;24370;51.986;4.666;2024-03-22T09:37:27;17.40;;;7.43;;
38615;SDS011;24370;51.986;4.666;2024-03-22T09:39:53;12.57;;;5.53;;
38615;SDS011;24370;51.986;4.666;2024-03-22T09:42:18;18.07;;;6.47;;
38615;SDS011;24370;51.986;4.666;2024-03-22T09:44:48;16.73;;;6.57;;
38615;SDS011;24370;51.986;4.666;2024-03-22T09:47:15;22.80;;;7.30;;
38615;SDS011;24370;51.986;4.666;2024-03-22T09:49:42;20.60;;;6.93;;
38615;SDS011;24370;51.986;4.666;2024-03-22T09:52:12;15.77;;;6.53;;
38615;SDS011;24370;51.986;4.666;2024-03-22T09:54:38;19.63;;;5.57;;
38615;SDS011;24370;51.986;4.666;2024-03-22T09:57:09;20.90;;;6.73;;
38615;SDS011;24370;51.986;4.666;2024-03-22T09:59:42;18.70;;;7.07;;
38615;SDS011;24370;51.986;4.666;2024-03-22T10:02:10;15.37;;;6.30;;
38615;SDS011;24370;51.986;4.666;2024-03-22T10:04:40;20.63;;;6.87;;
38615;SDS011;24370;51.986;4.666;2024-03-22T10:07:05;17.10;;;7.13;;
38615;SDS011;24370;51.986;4.666;2024-03-22T10:09:32;16.07;;;6.47;;
38615;SDS011;24370;51.986;4.666;2024-03-22T10:11:57;24.43;;;6.87;;
38615;SDS011;24370;51.986;4.666;2024-03-22T10:14:23;14.33;;;5.87;;
38615;SDS011;24370;51.986;4.666;2024-03-22T10:16:52;18.10;;;6.70;;
38615;SDS011;24370;51.986;4.666;2024-03-22T10:19:19;18.67;;;6.80;;
38615;SDS011;24370;51.986;4.666;2024-03-22T10:21:48;13.87;;;5.77;;
38615;SDS011;24370;51.986;4.666;2024-03-22T10:24:24;16.80;;;5.80;;
38615;SDS011;24370;51.986;4.666;2024-03-22T10:26:50;17.47;;;5.83;;
38615;SDS011;24370;51.986;4.666;2024-03-22T10:29:15;13.83;;;5.53;;
38615;SDS011;24370;51.986;4.666;2024-03-22T10:31:41;16.60;;;5.77;;
38615;SDS011;24370;51.986;4.666;2024-03-22T10:34:07;12.60;;;5.00;;
38615;SDS011;24370;51.986;4.666;2024-03-22T10:36:34;12.90;;;5.93;;
38615;SDS011;24370;51.986;4.666;2024-03-22T10:38:59;16.10;;;5.63;;
38615;SDS011;24370;51.986;4.666;2024-03-22T10:41:26;12.37;;;5.53;;
38615;SDS011;24370;51.986;4.666;2024-03-22T10:43:52;14.63;;;6.00;;
38615;SDS011;24370;51.986;4.666;2024-03-22T10:46:19;10.60;;;5.60;;
38615;SDS011;24370;51.986;4.666;2024-03-22T10:48:45;15.63;;;5.87;;
38615;SDS011;24370;51.986;4.666;2024-03-22T10:51:11;19.30;;;5.30;;
38615;SDS011;24370;51.986;4.666;2024-03-22T10:53:39;12.87;;;5.47;;
38615;SDS011;24370;51.986;4.666;2024-03-22T10:56:06;13.17;;;5.23;;
38615;SDS011;24370;51.986;4.666;2024-03-22T10:58:34;11.97;;;5.93;;
38615;SDS011;24370;51.986;4.666;2024-03-22T11:01:04;12.73;;;6.00;;
38615;SDS011;24370;51.986;4.666;2024-03-22T11:03:30;14.77;;;5.80;;
38615;SDS011;24370;51.986;4.666;2024-03-22T11:05:56;12.43;;;5.67;;
38615;SDS011;24370;51.986;4.666;2024-03-22T11:08:31;10.43;;;6.10;;
38615;SDS011;24370;51.986;4.666;2024-03-22T11:10:56;10.33;;;6.17;;
38615;SDS011;24370;51.986;4.666;2024-03-22T11:13:22;11.23;;;5.63;;
38615;SDS011;24370;51.986;4.666;2024-03-22T11:15:51;11.40;;;5.83;;
38615;SDS011;24370;51.986;4.666;2024-03-22T11:18:17;17.00;;;5.43;;
38615;SDS011;24370;51.986;4.666;2024-03-22T11:20:43;12.13;;;6.60;;
38615;SDS011;24370;51.986;4.666;2024-03-22T11:23:10;13.40;;;6.50;;
38615;SDS011;24370;51.986;4.666;2024-03-22T11:25:35;12.67;;;7.00;;
38615;SDS011;24370;51.986;4.666;2024-03-22T11:28:01;16.27;;;6.17;;
38615;SDS011;24370;51.986;4.666;2024-03-22T11:30:29;14.33;;;6.63;;
38615;SDS011;24370;51.986;4.666;2024-03-22T11:32:56;16.20;;;7.07;;
38615;SDS011;24370;51.986;4.666;2024-03-22T11:35:22;14.37;;;6.90;;
38615;SDS011;24370;51.986;4.666;2024-03-22T11:37:48;11.27;;;6.03;;
38615;SDS011;24370;51.986;4.666;2024-03-22T11:40:15;11.30;;;5.83;;
38615;SDS011;24370;51.986;4.666;2024-03-22T11:42:42;12.50;;;6.73;;
38615;SDS011;24370;51.986;4.666;2024-03-22T11:45:12;14.37;;;6.37;;
38615;SDS011;24370;51.986;4.666;2024-03-22T11:47:39;16.33;;;7.10;;
38615;SDS011;24370;51.986;4.666;2024-03-22T11:50:05;20.57;;;7.10;;
38615;SDS011;24370;51.986;4.666;2024-03-22T11:52:31;19.37;;;7.57;;
38615;SDS011;24370;51.986;4.666;2024-03-22T11:54:57;19.55;;;8.52;;
38615;SDS011;24370;51.986;4.666;2024-03-22T11:57:22;14.15;;;7.18;;
38615;SDS011;24370;51.986;4.666;2024-03-22T11:59:50;14.70;;;7.33;;
38615;SDS011;24370;51.986;4.666;2024-03-22T12:02:15;16.55;;;6.63;;
38615;SDS011;24370;51.986;4.666;2024-03-22T12:04:50;19.13;;;7.55;;
38615;SDS011;24370;51.986;4.666;2024-03-22T12:07:16;16.30;;;6.40;;
38615;SDS011;24370;51.986;4.666;2024-03-22T12:09:45;22.05;;;7.15;;
38615;SDS011;24370;51.986;4.666;2024-03-22T12:12:12;20.13;;;7.07;;
38615;SDS011;24370;51.986;4.666;2024-03-22T12:14:38;16.50;;;7.43;;
38615;SDS011;24370;51.986;4.666;2024-03-22T12:17:05;17.20;;;6.55;;
38615;SDS011;24370;51.986;4.666;2024-03-22T12:19:31;10.57;;;5.78;;
38615;SDS011;24370;51.986;4.666;2024-03-22T12:21:56;11.88;;;5.72;;
38615;SDS011;24370;51.986;4.666;2024-03-22T12:24:22;10.77;;;5.50;;
38615;SDS011;24370;51.986;4.666;2024-03-22T12:26:48;16.00;;;5.13;;
38615;SDS011;24370;51.986;4.666;2024-03-22T12:29:17;17.53;;;4.03;;
38615;SDS011;24370;51.986;4.666;2024-03-22T12:31:43;8.68;;;3.67;;
38615;SDS011;24370;51.986;4.666;2024-03-22T12:34:09;14.88;;;3.78;;
38615;SDS011;24370;51.986;4.666;2024-03-22T12:36:34;14.75;;;4.10;;
38615;SDS011;24370;51.986;4.666;2024-03-22T12:39:00;10.52;;;5.25;;
38615;SDS011;24370;51.986;4.666;2024-03-22T12:41:25;12.40;;;4.60;;
38615;SDS011;24370;51.986;4.666;2024-03-22T12:43:52;9.48;;;4.20;;
38615;SDS011;24370;51.986;4.666;2024-03-22T12:46:17;9.60;;;4.13;;
38615;SDS011;24370;51.986;4.666;2024-03-22T12:48:43;9.70;;;4.60;;
38615;SDS011;24370;51.986;4.666;2024-03-22T12:51:08;10.50;;;5.03;;
38615;SDS011;24370;51.986;4.666;2024-03-22T12:53:34;7.90;;;3.83;;
38615;SDS011;24370;51.986;4.666;2024-03-22T12:55:59;6.80;;;4.30;;
38615;SDS011;24370;51.986;4.666;2024-03-22T12:58:24;8.03;;;3.87;;
38615;SDS011;24370;51.986;4.666;2024-03-22T13:00:50;7.22;;;4.07;;
38615;SDS011;24370;51.986;4.666;2024-03-22T13:03:15;7.90;;;3.87;;
38615;SDS011;24370;51.986;4.666;2024-03-22T13:05:41;10.38;;;3.88;;
38615;SDS011;24370;51.986;4.666;2024-03-22T13:08:06;9.47;;;3.47;;
38615;SDS011;24370;51.986;4.666;2024-03-22T13:10:32;8.87;;;4.20;;
38615;SDS011;24370;51.986;4.666;2024-03-22T13:12:57;11.20;;;4.50;;
38615;SDS011;24370;51.986;4.666;2024-03-22T13:15:23;9.33;;;4.30;;
38615;SDS011;24370;51.986;4.666;2024-03-22T13:17:49;13.57;;;5.87;;
38615;SDS011;24370;51.986;4.666;2024-03-22T13:20:15;11.67;;;4.47;;
38615;SDS011;24370;51.986;4.666;2024-03-22T13:22:43;12.73;;;4.23;;
38615;SDS011;24370;51.986;4.666;2024-03-22T13:25:08;12.30;;;4.60;;
38615;SDS011;24370;51.986;4.666;2024-03-22T13:27:35;10.40;;;4.37;;
38615;SDS011;24370;51.986;4.666;2024-03-22T13:30:01;11.43;;;4.90;;
38615;SDS011;24370;51.986;4.666;2024-03-22T13:32:27;11.67;;;4.93;;
38615;SDS011;24370;51.986;4.666;2024-03-22T13:34:53;8.73;;;5.07;;
38615;SDS011;24370;51.986;4.666;2024-03-22T13:37:18;12.90;;;5.40;;
38615;SDS011;24370;51.986;4.666;2024-03-22T13:39:47;11.30;;;5.50;;
38615;SDS011;24370;51.986;4.666;2024-03-22T13:42:13;16.80;;;6.60;;
38615;SDS011;24370;51.986;4.666;2024-03-22T13:44:39;18.67;;;6.10;;
38615;SDS011;24370;51.986;4.666;2024-03-22T13:47:04;14.80;;;6.23;;
38615;SDS011;24370;51.986;4.666;2024-03-22T13:49:29;11.77;;;5.87;;
38615;SDS011;24370;51.986;4.666;2024-03-22T13:51:57;13.53;;;4.97;;
38615;SDS011;24370;51.986;4.666;2024-03-22T13:54:24;14.60;;;6.03;;
38615;SDS011;24370;51.986;4.666;2024-03-22T13:56:49;11.70;;;5.40;;
38615;SDS011;24370;51.986;4.666;2024-03-22T13:59:15;10.70;;;5.57;;
38615;SDS011;24370;51.986;4.666;2024-03-22T14:01:41;14.13;;;5.40;;
38615;SDS011;24370;51.986;4.666;2024-03-22T14:04:10;11.57;;;4.83;;
38615;SDS011;24370;51.986;4.666;2024-03-22T14:06:36;11.83;;;5.40;;
38615;SDS011;24370;51.986;4.666;2024-03-22T14:09:02;12.33;;;5.20;;
38615;SDS011;24370;51.986;4.666;2024-03-22T14:11:29;15.37;;;6.67;;
38615;SDS011;24370;51.986;4.666;2024-03-22T14:13:58;14.17;;;5.03;;
38615;SDS011;24370;51.986;4.666;2024-03-22T14:16:24;12.73;;;5.33;;
38615;SDS011;24370;51.986;4.666;2024-03-22T14:18:49;14.67;;;4.77;;
38615;SDS011;24370;51.986;4.666;2024-03-22T14:21:15;13.30;;;5.17;;
38615;SDS011;24370;51.986;4.666;2024-03-22T14:23:48;12.73;;;5.73;;